createdAt,value
2023-05-06T00:01:01.000Z,438.5756530761719
2023-05-06T00:02:03.000Z,439.4077453613281
2023-05-06T00:03:05.000Z,437.47998046875
2023-05-06T00:04:08.000Z,436.74993896484375
2023-05-06T00:05:10.000Z,437.8312072753906
2023-05-06T00:06:12.000Z,437.623046875
2023-05-06T00:07:14.000Z,439.21636962890625
2023-05-06T00:08:16.000Z,441.838623046875
2023-05-06T00:09:18.000Z,443.3361511230469
2023-05-06T00:10:20.000Z,444.4407653808594
2023-05-06T00:11:23.000Z,444.2507019042969
2023-05-06T00:12:25.000Z,441.3949890136719
2023-05-06T00:13:27.000Z,439.2846984863281
2023-05-06T00:14:29.000Z,436.89892578125
2023-05-06T00:15:31.000Z,436.4767761230469
2023-05-06T00:16:34.000Z,435.0609130859375
2023-05-06T00:17:36.000Z,434.51348876953125
2023-05-06T00:18:38.000Z,435.0661926269531
2023-05-06T00:19:40.000Z,436.97076416015625
2023-05-06T00:20:42.000Z,436.78546142578125
2023-05-06T00:21:44.000Z,435.5875549316406
2023-05-06T00:22:47.000Z,437.4996337890625
2023-05-06T00:23:49.000Z,436.3900146484375
2023-05-06T00:24:51.000Z,435.0550842285156
2023-05-06T00:25:53.000Z,435.783447265625
2023-05-06T00:26:55.000Z,437.9136047363281
2023-05-06T00:27:57.000Z,437.7457275390625
2023-05-06T00:28:59.000Z,438.1555480957031
2023-05-06T00:30:02.000Z,436.1706848144531
2023-05-06T00:31:04.000Z,437.5755920410156
2023-05-06T00:32:06.000Z,439.72265625
2023-05-06T00:33:08.000Z,440.1067199707031
2023-05-06T00:34:10.000Z,439.7203674316406
2023-05-06T00:35:12.000Z,441.8471374511719
2023-05-06T00:36:14.000Z,444.9109802246094
2023-05-06T00:37:17.000Z,444.8294677734375
2023-05-06T00:38:19.000Z,446.4260559082031
2023-05-06T00:39:21.000Z,444.6842956542969
2023-05-06T00:40:23.000Z,446.7027587890625
2023-05-06T00:41:25.000Z,444.77630615234375
2023-05-06T00:42:27.000Z,443.0527648925781
2023-05-06T00:43:30.000Z,442.3669128417969
2023-05-06T00:44:32.000Z,442.5273132324219
2023-05-06T00:45:34.000Z,440.6089782714844
2023-05-06T00:46:36.000Z,436.7191467285156
2023-05-06T00:47:38.000Z,436.1205749511719
2023-05-06T00:48:40.000Z,433.8321228027344
2023-05-06T00:49:43.000Z,432.8028564453125
2023-05-06T00:50:45.000Z,434.0264587402344
2023-05-06T00:51:47.000Z,434.9501953125
2023-05-06T00:52:49.000Z,435.4913024902344
2023-05-06T00:53:51.000Z,437.01971435546875
2023-05-06T00:54:53.000Z,438.63287353515625
2023-05-06T00:55:55.000Z,440.7579650878906
2023-05-06T00:56:58.000Z,440.922607421875
2023-05-06T00:58:00.000Z,441.5752258300781
2023-05-06T00:59:02.000Z,442.3729248046875
2023-05-06T01:00:04.000Z,444.0179748535156
2023-05-06T01:01:06.000Z,445.0461120605469
2023-05-06T01:02:08.000Z,448.90338134765625
2023-05-06T01:03:11.000Z,448.0174255371094
2023-05-06T01:04:13.000Z,449.0127258300781
2023-05-06T01:05:15.000Z,449.9044189453125
2023-05-06T01:06:17.000Z,450.885498046875
2023-05-06T01:07:19.000Z,453.3637390136719
2023-05-06T01:08:21.000Z,455.7388000488281
2023-05-06T01:09:23.000Z,453.0166931152344
2023-05-06T01:10:26.000Z,449.6248779296875
2023-05-06T01:11:28.000Z,446.1708068847656
2023-05-06T01:12:30.000Z,446.959716796875
2023-05-06T01:13:32.000Z,446.92156982421875
2023-05-06T01:14:34.000Z,445.5529479980469
2023-05-06T01:15:36.000Z,445.4051208496094
2023-05-06T01:16:39.000Z,444.3792419433594
2023-05-06T01:17:41.000Z,442.40643310546875
2023-05-06T01:18:43.000Z,441.67724609375
2023-05-06T01:19:45.000Z,440.38226318359375
2023-05-06T01:20:47.000Z,441.0996398925781
2023-05-06T01:21:49.000Z,439.14837646484375
2023-05-06T01:22:52.000Z,437.7997131347656
2023-05-06T01:23:54.000Z,437.0307922363281
2023-05-06T01:24:56.000Z,436.8774719238281
2023-05-06T01:25:58.000Z,435.6934814453125
2023-05-06T01:27:00.000Z,437.0382995605469
2023-05-06T01:28:02.000Z,439.57861328125
2023-05-06T01:29:04.000Z,440.1787109375
2023-05-06T01:30:07.000Z,442.29412841796875
2023-05-06T01:31:09.000Z,442.2550964355469
2023-05-06T01:32:11.000Z,444.3896179199219
2023-05-06T01:33:13.000Z,444.2674865722656
2023-05-06T01:34:15.000Z,443.6893615722656
2023-05-06T01:35:17.000Z,442.7645568847656
2023-05-06T01:36:19.000Z,443.5884094238281
2023-05-06T01:37:22.000Z,446.2897644042969
2023-05-06T01:38:24.000Z,446.4120788574219
2023-05-06T01:39:26.000Z,447.9883728027344
2023-05-06T01:40:28.000Z,447.3760986328125
2023-05-06T01:41:30.000Z,447.28216552734375
2023-05-06T01:42:32.000Z,445.63311767578125
2023-05-06T01:43:35.000Z,443.87103271484375
2023-05-06T01:44:37.000Z,442.1631164550781
2023-05-06T01:45:39.000Z,442.27459716796875
2023-05-06T01:46:41.000Z,441.4056701660156
2023-05-06T01:47:43.000Z,440.8843688964844
2023-05-06T01:48:45.000Z,443.71612548828125
2023-05-06T01:49:47.000Z,440.9680480957031
2023-05-06T01:50:50.000Z,443.16259765625
2023-05-06T01:51:52.000Z,443.4263000488281
2023-05-06T01:52:54.000Z,442.711669921875
2023-05-06T01:53:56.000Z,442.43658447265625
2023-05-06T01:54:58.000Z,443.4442138671875
2023-05-06T01:56:00.000Z,444.7105407714844
2023-05-06T01:57:02.000Z,445.66021728515625
2023-05-06T01:58:05.000Z,445.1518859863281
2023-05-06T01:59:07.000Z,447.8062744140625
2023-05-06T02:00:09.000Z,450.36328125
2023-05-06T02:01:11.000Z,448.0588684082031
2023-05-06T02:02:13.000Z,444.4683532714844
2023-05-06T02:03:15.000Z,440.8944396972656
2023-05-06T02:04:18.000Z,439.3798828125
2023-05-06T02:05:20.000Z,437.41668701171875
2023-05-06T02:06:22.000Z,436.50030517578125
2023-05-06T02:07:24.000Z,435.1114807128906
2023-05-06T02:08:26.000Z,436.0087585449219
2023-05-06T02:09:28.000Z,434.2734375
2023-05-06T02:10:30.000Z,433.846923828125
2023-05-06T02:11:33.000Z,435.53515625
2023-05-06T02:12:35.000Z,432.0413513183594
2023-05-06T02:13:37.000Z,431.14886474609375
2023-05-06T02:14:39.000Z,431.8675842285156
2023-05-06T02:15:41.000Z,432.9839782714844
2023-05-06T02:16:43.000Z,434.3419494628906
2023-05-06T02:17:45.000Z,434.76873779296875
2023-05-06T02:18:48.000Z,434.7298278808594
2023-05-06T02:19:50.000Z,436.07012939453125
2023-05-06T02:20:52.000Z,436.0641784667969
2023-05-06T02:21:54.000Z,437.62939453125
2023-05-06T02:22:56.000Z,440.48028564453125
2023-05-06T02:23:58.000Z,439.3778076171875
2023-05-06T02:25:00.000Z,438.34478759765625
2023-05-06T02:26:03.000Z,436.290771484375
2023-05-06T02:27:05.000Z,435.8115539550781
2023-05-06T02:28:07.000Z,435.561767578125
2023-05-06T02:29:09.000Z,434.8141784667969
2023-05-06T02:30:11.000Z,433.9442138671875
2023-05-06T02:31:13.000Z,436.5784606933594
2023-05-06T02:32:15.000Z,435.8921813964844
2023-05-06T02:33:18.000Z,435.3541259765625
2023-05-06T02:34:20.000Z,436.70172119140625
2023-05-06T02:35:22.000Z,436.7795715332031
2023-05-06T02:36:24.000Z,435.6158142089844
2023-05-06T02:37:26.000Z,435.8225402832031
2023-05-06T02:38:28.000Z,435.8306579589844
2023-05-06T02:39:31.000Z,436.1436462402344
2023-05-06T02:40:33.000Z,439.618896484375
2023-05-06T02:41:35.000Z,441.0575866699219
2023-05-06T02:42:37.000Z,443.94708251953125
2023-05-06T02:43:39.000Z,443.8973083496094
2023-05-06T02:44:41.000Z,445.0646667480469
2023-05-06T02:45:43.000Z,447.10284423828125
2023-05-06T02:46:45.000Z,447.93890380859375
2023-05-06T02:47:48.000Z,450.1454162597656
2023-05-06T02:48:50.000Z,449.0004577636719
2023-05-06T02:49:52.000Z,449.8824157714844
2023-05-06T02:50:54.000Z,450.40264892578125
2023-05-06T02:51:56.000Z,451.7489013671875
2023-05-06T02:52:58.000Z,451.48626708984375
2023-05-06T02:54:00.000Z,450.8678894042969
2023-05-06T02:55:03.000Z,454.3950500488281
2023-05-06T02:56:05.000Z,452.03448486328125
2023-05-06T02:57:07.000Z,452.57818603515625
2023-05-06T02:58:09.000Z,450.16668701171875
2023-05-06T02:59:11.000Z,448.2449645996094
2023-05-06T03:00:13.000Z,448.1428527832031
2023-05-06T03:01:16.000Z,449.1528015136719
2023-05-06T03:02:18.000Z,450.02691650390625
2023-05-06T03:03:20.000Z,447.1197204589844
2023-05-06T03:04:22.000Z,445.9214172363281
2023-05-06T03:05:24.000Z,443.7074279785156
2023-05-06T03:06:26.000Z,442.6173095703125
2023-05-06T03:07:28.000Z,441.60089111328125
2023-05-06T03:08:31.000Z,439.8096618652344
2023-05-06T03:09:33.000Z,439.2001953125
2023-05-06T03:10:35.000Z,438.9375305175781
2023-05-06T03:11:37.000Z,438.3631896972656
2023-05-06T03:12:39.000Z,437.9412841796875
2023-05-06T03:13:41.000Z,437.2896728515625
2023-05-06T03:14:43.000Z,439.867431640625
2023-05-06T03:15:46.000Z,441.25628662109375
2023-05-06T03:16:48.000Z,442.8392333984375
2023-05-06T03:17:50.000Z,446.32257080078125
2023-05-06T03:18:52.000Z,445.8486328125
2023-05-06T03:19:54.000Z,446.1368408203125
2023-05-06T03:20:56.000Z,443.2447509765625
2023-05-06T03:21:59.000Z,439.77508544921875
2023-05-06T03:23:01.000Z,439.8675842285156
2023-05-06T03:24:03.000Z,439.3127746582031
2023-05-06T03:25:05.000Z,441.12115478515625
2023-05-06T03:26:07.000Z,442.9338684082031
2023-05-06T03:27:09.000Z,440.3177795410156
2023-05-06T03:28:11.000Z,441.7962951660156
2023-05-06T03:29:14.000Z,441.8677062988281
2023-05-06T03:30:16.000Z,440.3972473144531
2023-05-06T03:31:18.000Z,440.0151672363281
2023-05-06T03:32:20.000Z,440.2950744628906
2023-05-06T03:33:22.000Z,439.4840087890625
2023-05-06T03:34:24.000Z,439.6639709472656
2023-05-06T03:35:26.000Z,438.6165466308594
2023-05-06T03:36:29.000Z,438.4390869140625
2023-05-06T03:37:31.000Z,438.5760803222656
2023-05-06T03:38:33.000Z,436.03009033203125
2023-05-06T03:39:35.000Z,435.6214294433594
2023-05-06T03:40:37.000Z,437.2247009277344
2023-05-06T03:41:39.000Z,437.8648681640625
2023-05-06T03:42:41.000Z,437.8008117675781
2023-05-06T03:43:44.000Z,439.57318115234375
2023-05-06T03:44:46.000Z,438.1014404296875
2023-05-06T03:45:48.000Z,441.18914794921875
2023-05-06T03:46:50.000Z,442.1443176269531
2023-05-06T03:47:52.000Z,441.9582824707031
2023-05-06T03:48:54.000Z,440.6661682128906
2023-05-06T03:49:56.000Z,442.22052001953125
2023-05-06T03:50:59.000Z,444.0312805175781
2023-05-06T03:52:01.000Z,444.7313537597656
2023-05-06T03:53:03.000Z,443.9545593261719
2023-05-06T03:54:05.000Z,444.3849792480469
2023-05-06T03:55:07.000Z,446.0684509277344
2023-05-06T03:56:09.000Z,446.4715881347656
2023-05-06T03:57:12.000Z,445.5711364746094
2023-05-06T03:58:14.000Z,445.1827697753906
2023-05-06T03:59:16.000Z,444.79376220703125
2023-05-06T04:00:18.000Z,444.296630859375
2023-05-06T04:01:20.000Z,444.6307067871094
2023-05-06T04:02:22.000Z,443.19989013671875
2023-05-06T04:03:25.000Z,444.8744201660156
2023-05-06T04:04:27.000Z,445.48248291015625
2023-05-06T04:05:29.000Z,442.99688720703125
2023-05-06T04:06:31.000Z,440.4165954589844
2023-05-06T04:07:33.000Z,441.1311950683594
2023-05-06T04:08:35.000Z,440.9161682128906
2023-05-06T04:09:37.000Z,440.4806213378906
2023-05-06T04:10:40.000Z,439.4394226074219
2023-05-06T04:11:42.000Z,437.76422119140625
2023-05-06T04:12:44.000Z,435.7833251953125
2023-05-06T04:13:46.000Z,435.18011474609375
2023-05-06T04:14:48.000Z,435.46502685546875
2023-05-06T04:15:50.000Z,435.1629638671875
2023-05-06T04:16:53.000Z,434.7835693359375
2023-05-06T04:17:55.000Z,434.1669616699219
2023-05-06T04:18:57.000Z,434.8860168457031
2023-05-06T04:19:59.000Z,433.01141357421875
2023-05-06T04:21:01.000Z,434.47222900390625
2023-05-06T04:22:03.000Z,435.4390869140625
2023-05-06T04:23:05.000Z,437.8338928222656
2023-05-06T04:24:08.000Z,440.1538391113281
2023-05-06T04:25:10.000Z,440.8513488769531
2023-05-06T04:26:12.000Z,441.53125
2023-05-06T04:27:14.000Z,441.5898132324219
2023-05-06T04:28:16.000Z,442.6281433105469
2023-05-06T04:29:18.000Z,444.3802795410156
2023-05-06T04:30:21.000Z,445.8139343261719
2023-05-06T04:31:23.000Z,446.01959228515625
2023-05-06T04:32:25.000Z,446.4798889160156
2023-05-06T04:33:27.000Z,445.93414306640625
2023-05-06T04:34:29.000Z,446.6706848144531
2023-05-06T04:35:31.000Z,446.6235046386719
2023-05-06T04:36:33.000Z,446.6337585449219
2023-05-06T04:37:36.000Z,446.39276123046875
2023-05-06T04:38:38.000Z,444.97265625
2023-05-06T04:39:40.000Z,442.80767822265625
2023-05-06T04:40:42.000Z,442.2016296386719
2023-05-06T04:41:44.000Z,439.1064453125
2023-05-06T04:42:46.000Z,438.33197021484375
2023-05-06T04:43:49.000Z,437.787109375
2023-05-06T04:44:51.000Z,438.0594482421875
2023-05-06T04:45:53.000Z,438.8818664550781
2023-05-06T04:46:55.000Z,439.41644287109375
2023-05-06T04:47:57.000Z,438.8333740234375
2023-05-06T04:48:59.000Z,437.2744140625
2023-05-06T04:50:01.000Z,439.14727783203125
2023-05-06T04:51:04.000Z,436.25445556640625
2023-05-06T04:52:06.000Z,434.1156921386719
2023-05-06T04:53:08.000Z,432.5989685058594
2023-05-06T04:54:10.000Z,434.897705078125
2023-05-06T04:55:12.000Z,434.4507141113281
2023-05-06T04:56:14.000Z,435.47760009765625
2023-05-06T04:57:16.000Z,438.0567321777344
2023-05-06T04:58:19.000Z,437.9356994628906
2023-05-06T04:59:21.000Z,439.0556945800781
2023-05-06T05:00:23.000Z,438.3973083496094
2023-05-06T05:01:25.000Z,439.9495849609375
2023-05-06T05:02:27.000Z,441.9581604003906
2023-05-06T05:03:29.000Z,443.0633544921875
2023-05-06T05:04:32.000Z,442.3486328125
2023-05-06T05:05:34.000Z,441.32958984375
2023-05-06T05:06:36.000Z,440.7066650390625
2023-05-06T05:07:38.000Z,442.32427978515625
2023-05-06T05:08:40.000Z,443.962890625
2023-05-06T05:09:42.000Z,444.028076171875
2023-05-06T05:10:44.000Z,441.7699890136719
2023-05-06T05:11:47.000Z,441.81878662109375
2023-05-06T05:12:49.000Z,439.7391662597656
2023-05-06T05:13:51.000Z,439.4678039550781
2023-05-06T05:14:53.000Z,440.41754150390625
2023-05-06T05:15:55.000Z,438.3695068359375
2023-05-06T05:16:57.000Z,439.5874328613281
2023-05-06T05:17:59.000Z,437.3677673339844
2023-05-06T05:19:02.000Z,435.00921630859375
2023-05-06T05:20:04.000Z,436.0317077636719
2023-05-06T05:21:06.000Z,436.69622802734375
2023-05-06T05:22:08.000Z,435.91302490234375
2023-05-06T05:23:10.000Z,435.1888427734375
2023-05-06T05:24:12.000Z,436.6009216308594
2023-05-06T05:25:14.000Z,436.3006286621094
2023-05-06T05:26:17.000Z,439.05621337890625
2023-05-06T05:27:19.000Z,439.38616943359375
2023-05-06T05:28:21.000Z,438.3739318847656
2023-05-06T05:29:23.000Z,437.98944091796875
2023-05-06T05:30:25.000Z,437.71282958984375
2023-05-06T05:31:27.000Z,439.50274658203125
2023-05-06T05:32:30.000Z,439.2595520019531
2023-05-06T05:33:32.000Z,437.2484436035156
2023-05-06T05:34:34.000Z,437.4058837890625
2023-05-06T05:35:36.000Z,438.9502868652344
2023-05-06T05:36:38.000Z,436.856689453125
2023-05-06T05:37:40.000Z,436.56268310546875
2023-05-06T05:38:42.000Z,437.9226989746094
2023-05-06T05:39:45.000Z,437.272216796875
2023-05-06T05:40:47.000Z,434.8092346191406
2023-05-06T05:41:49.000Z,435.4386291503906
2023-05-06T05:42:51.000Z,434.6266174316406
2023-05-06T05:43:53.000Z,433.61090087890625
2023-05-06T05:44:55.000Z,434.4971923828125
2023-05-06T05:45:57.000Z,434.9993591308594
2023-05-06T05:47:00.000Z,434.1843566894531
2023-05-06T05:48:02.000Z,432.3534851074219
2023-05-06T05:49:04.000Z,431.3905944824219
2023-05-06T05:50:06.000Z,429.8940124511719
2023-05-06T05:51:08.000Z,432.988525390625
2023-05-06T05:52:10.000Z,432.1647033691406
2023-05-06T05:53:12.000Z,434.6367492675781
2023-05-06T05:54:15.000Z,433.923583984375
2023-05-06T05:55:17.000Z,434.7305603027344
2023-05-06T05:56:19.000Z,432.9626770019531
2023-05-06T05:57:21.000Z,433.94195556640625
2023-05-06T05:58:23.000Z,434.0198669433594
2023-05-06T05:59:25.000Z,433.86279296875
2023-05-06T06:00:28.000Z,433.6864929199219
2023-05-06T06:01:30.000Z,433.02056884765625
2023-05-06T06:02:32.000Z,431.9246520996094
2023-05-06T06:03:34.000Z,433.128662109375
2023-05-06T06:04:36.000Z,431.63262939453125
2023-05-06T06:05:38.000Z,429.9577331542969
2023-05-06T06:06:40.000Z,428.888427734375
2023-05-06T06:07:43.000Z,429.854248046875
2023-05-06T06:08:45.000Z,429.2189025878906
2023-05-06T06:09:47.000Z,430.2247314453125
2023-05-06T06:10:49.000Z,428.9104309082031
2023-05-06T06:11:51.000Z,428.80462646484375
2023-05-06T06:12:53.000Z,428.73443603515625
2023-05-06T06:13:55.000Z,427.4067687988281
2023-05-06T06:14:58.000Z,441.66363525390625
2023-05-06T06:16:00.000Z,441.40667724609375
2023-05-06T06:17:02.000Z,442.76171875
2023-05-06T06:18:04.000Z,441.9817199707031
2023-05-06T06:19:06.000Z,442.1677551269531
2023-05-06T06:20:08.000Z,440.4312438964844
2023-05-06T06:21:10.000Z,439.1376647949219
2023-05-06T06:22:13.000Z,439.6361999511719
2023-05-06T06:23:15.000Z,439.45849609375
2023-05-06T06:24:17.000Z,438.5829772949219
2023-05-06T06:25:19.000Z,440.7616882324219
2023-05-06T06:26:21.000Z,444.7712097167969
2023-05-06T06:27:23.000Z,444.41796875
2023-05-06T06:28:25.000Z,441.842041015625
2023-05-06T06:29:28.000Z,440.7278137207031
2023-05-06T06:30:30.000Z,440.0107421875
2023-05-06T06:31:32.000Z,441.6566467285156
2023-05-06T06:32:34.000Z,442.2477111816406
2023-05-06T06:33:36.000Z,442.5390625
2023-05-06T06:34:38.000Z,441.7532653808594
2023-05-06T06:35:40.000Z,438.88592529296875
2023-05-06T06:36:43.000Z,439.4097595214844
2023-05-06T06:37:45.000Z,437.5602111816406
2023-05-06T06:38:47.000Z,435.1262512207031
2023-05-06T06:39:49.000Z,435.36297607421875
2023-05-06T06:40:51.000Z,435.4541015625
2023-05-06T06:41:53.000Z,434.1649169921875
2023-05-06T06:42:55.000Z,435.0611572265625
2023-05-06T06:43:58.000Z,435.81207275390625
2023-05-06T06:45:00.000Z,437.34832763671875
2023-05-06T06:46:02.000Z,435.84503173828125
2023-05-06T06:47:04.000Z,435.73004150390625
2023-05-06T06:48:06.000Z,436.4525146484375
2023-05-06T06:49:08.000Z,439.7095642089844
2023-05-06T06:50:11.000Z,441.2677001953125
2023-05-06T06:51:13.000Z,440.2511291503906
2023-05-06T06:52:15.000Z,437.26904296875
2023-05-06T06:53:17.000Z,436.1553955078125
2023-05-06T06:54:19.000Z,435.6810607910156
2023-05-06T06:55:22.000Z,436.9249572753906
2023-05-06T06:56:24.000Z,435.7859191894531
2023-05-06T06:57:26.000Z,436.78662109375
2023-05-06T06:58:28.000Z,434.6133728027344
2023-05-06T06:59:30.000Z,436.32525634765625
2023-05-06T07:00:32.000Z,434.9806213378906
2023-05-06T07:01:34.000Z,435.3244934082031
2023-05-06T07:02:37.000Z,437.06500244140625
2023-05-06T07:03:39.000Z,436.0890197753906
2023-05-06T07:04:41.000Z,435.49945068359375
2023-05-06T07:05:43.000Z,438.8665466308594
2023-05-06T07:06:45.000Z,442.0025939941406
2023-05-06T07:07:47.000Z,441.3334045410156
2023-05-06T07:08:49.000Z,444.2330627441406
2023-05-06T07:09:52.000Z,442.2172546386719
2023-05-06T07:10:54.000Z,441.13458251953125
2023-05-06T07:11:56.000Z,436.103759765625
2023-05-06T07:12:58.000Z,438.07598876953125
2023-05-06T07:14:00.000Z,438.75396728515625
2023-05-06T07:15:02.000Z,442.45660400390625
2023-05-06T07:16:05.000Z,437.9989013671875
2023-05-06T07:17:07.000Z,437.2077941894531
2023-05-06T07:18:09.000Z,435.3122253417969
2023-05-06T07:19:11.000Z,433.17108154296875
2023-05-06T07:20:13.000Z,434.476806640625
2023-05-06T07:21:15.000Z,434.77166748046875
2023-05-06T07:22:17.000Z,436.10791015625
2023-05-06T07:23:20.000Z,436.7117614746094
2023-05-06T07:24:22.000Z,435.0743713378906
2023-05-06T07:25:24.000Z,433.8920593261719
2023-05-06T07:26:26.000Z,432.7519836425781
2023-05-06T07:27:28.000Z,431.9604797363281
2023-05-06T07:28:30.000Z,430.16790771484375
2023-05-06T07:29:32.000Z,427.5459899902344
2023-05-06T07:30:35.000Z,430.2669982910156
2023-05-06T07:31:37.000Z,428.135986328125
2023-05-06T07:32:39.000Z,426.2963562011719
2023-05-06T07:33:41.000Z,426.36614990234375
2023-05-06T07:34:43.000Z,425.2691650390625
2023-05-06T07:35:45.000Z,426.0734558105469
2023-05-06T07:36:48.000Z,426.3731689453125
2023-05-06T07:37:50.000Z,425.00225830078125
2023-05-06T07:38:52.000Z,424.7039489746094
2023-05-06T07:39:54.000Z,425.8072814941406
2023-05-06T07:40:56.000Z,425.7893371582031
2023-05-06T07:41:58.000Z,422.65374755859375
2023-05-06T07:43:00.000Z,423.34869384765625
2023-05-06T07:44:03.000Z,427.768310546875
2023-05-06T07:45:05.000Z,428.86956787109375
2023-05-06T07:46:07.000Z,431.2495422363281
2023-05-06T07:47:09.000Z,430.8421325683594
2023-05-06T07:48:11.000Z,429.4117736816406
2023-05-06T07:49:13.000Z,427.3763732910156
2023-05-06T07:50:16.000Z,426.1426086425781
2023-05-06T07:51:18.000Z,430.07196044921875
2023-05-06T07:52:20.000Z,428.82537841796875
2023-05-06T07:53:22.000Z,432.28436279296875
2023-05-06T07:54:24.000Z,434.38616943359375
2023-05-06T07:55:26.000Z,435.4311828613281
2023-05-06T07:56:29.000Z,436.25469970703125
2023-05-06T07:57:31.000Z,436.1299743652344
2023-05-06T07:58:33.000Z,433.1335754394531
2023-05-06T07:59:35.000Z,434.78155517578125
2023-05-06T08:00:37.000Z,434.89300537109375
2023-05-06T08:01:39.000Z,435.5866394042969
2023-05-06T08:02:41.000Z,433.8965148925781
2023-05-06T08:03:44.000Z,432.80804443359375
2023-05-06T08:04:46.000Z,430.57879638671875
2023-05-06T08:05:48.000Z,429.5534973144531
2023-05-06T08:06:50.000Z,429.718994140625
2023-05-06T08:07:52.000Z,429.6068420410156
2023-05-06T08:08:54.000Z,429.8726806640625
2023-05-06T08:09:56.000Z,430.2293395996094
2023-05-06T08:10:59.000Z,431.6158447265625
2023-05-06T08:12:01.000Z,430.5638427734375
2023-05-06T08:13:03.000Z,427.84234619140625
2023-05-06T08:14:05.000Z,425.39697265625
2023-05-06T08:15:07.000Z,425.83636474609375
2023-05-06T08:16:09.000Z,427.2189636230469
2023-05-06T08:17:12.000Z,426.191650390625
2023-05-06T08:18:14.000Z,425.4378662109375
2023-05-06T08:19:16.000Z,425.65484619140625
2023-05-06T08:20:18.000Z,428.6925964355469
2023-05-06T08:21:20.000Z,428.92578125
2023-05-06T08:22:22.000Z,430.0767822265625
2023-05-06T08:23:24.000Z,431.6402587890625
2023-05-06T08:24:27.000Z,430.86334228515625
2023-05-06T08:25:29.000Z,432.743408203125
2023-05-06T08:26:31.000Z,433.3431701660156
2023-05-06T08:27:33.000Z,434.2119445800781
2023-05-06T08:28:35.000Z,434.35955810546875
2023-05-06T08:29:38.000Z,431.6511535644531
2023-05-06T08:30:40.000Z,430.2796630859375
2023-05-06T08:31:42.000Z,431.5606384277344
2023-05-06T08:32:44.000Z,431.4984130859375
2023-05-06T08:33:46.000Z,432.1799621582031
2023-05-06T08:34:48.000Z,430.7955017089844
2023-05-06T08:35:50.000Z,429.3367614746094
2023-05-06T08:36:53.000Z,427.009765625
2023-05-06T08:37:55.000Z,427.11724853515625
2023-05-06T08:38:57.000Z,426.3365478515625
2023-05-06T08:39:59.000Z,424.1038818359375
2023-05-06T08:41:01.000Z,424.9731140136719
2023-05-06T08:42:03.000Z,425.0879211425781
2023-05-06T08:43:06.000Z,422.3418884277344
2023-05-06T08:44:08.000Z,422.82769775390625
2023-05-06T08:45:10.000Z,426.2479553222656
2023-05-06T08:46:12.000Z,425.9763488769531
2023-05-06T08:47:14.000Z,424.2420349121094
2023-05-06T08:48:16.000Z,424.1441650390625
2023-05-06T08:49:18.000Z,428.0833435058594
2023-05-06T08:50:21.000Z,427.107666015625
2023-05-06T08:51:23.000Z,421.7593688964844
2023-05-06T08:52:25.000Z,419.8671569824219
2023-05-06T08:53:27.000Z,418.1781005859375
2023-05-06T08:54:29.000Z,417.0791015625
2023-05-06T08:55:31.000Z,415.4079895019531
2023-05-06T08:56:33.000Z,413.53314208984375
2023-05-06T08:57:35.000Z,414.3785095214844
2023-05-06T08:58:38.000Z,414.2395935058594
2023-05-06T08:59:40.000Z,414.9631652832031
2023-05-06T09:00:42.000Z,414.77032470703125
2023-05-06T09:01:44.000Z,417.27001953125
2023-05-06T09:02:46.000Z,414.5322265625
2023-05-06T09:03:48.000Z,415.21160888671875
2023-05-06T09:04:51.000Z,416.2173767089844
2023-05-06T09:05:53.000Z,419.0402526855469
2023-05-06T09:06:55.000Z,417.7421875
2023-05-06T09:07:57.000Z,420.1373291015625
2023-05-06T09:08:59.000Z,422.9355163574219
2023-05-06T09:10:01.000Z,422.3578796386719
2023-05-06T09:11:03.000Z,422.46954345703125
2023-05-06T09:12:06.000Z,422.8136901855469
2023-05-06T09:13:08.000Z,419.4593505859375
2023-05-06T09:14:10.000Z,420.8759765625
2023-05-06T09:15:12.000Z,418.482177734375
2023-05-06T09:16:14.000Z,419.6596984863281
2023-05-06T09:17:16.000Z,419.6199035644531
2023-05-06T09:18:18.000Z,420.72821044921875
2023-05-06T09:19:21.000Z,419.8287353515625
2023-05-06T09:20:23.000Z,416.20465087890625
2023-05-06T09:21:25.000Z,416.6273193359375
2023-05-06T09:22:27.000Z,416.58868408203125
2023-05-06T09:23:29.000Z,416.9121398925781
2023-05-06T09:24:31.000Z,417.4067077636719
2023-05-06T09:25:33.000Z,416.662353515625
2023-05-06T09:26:36.000Z,416.3834533691406
2023-05-06T09:27:38.000Z,416.181396484375
2023-05-06T09:28:40.000Z,415.00921630859375
2023-05-06T09:29:42.000Z,416.3097229003906
2023-05-06T09:30:44.000Z,415.41937255859375
2023-05-06T09:31:46.000Z,414.27655029296875
2023-05-06T09:32:49.000Z,414.079833984375
2023-05-06T09:33:51.000Z,416.27325439453125
2023-05-06T09:34:53.000Z,415.6538391113281
2023-05-06T09:35:55.000Z,414.6522216796875
2023-05-06T09:36:57.000Z,416.1737976074219
2023-05-06T09:37:59.000Z,415.1081848144531